sensor_id;sensor_type;location;lat;lon;timestamp;temperature;humidity
6986;DHT22;3533;51.246;6.850;2023-07-31T00:00:07;23.20;47.50
6986;DHT22;3533;51.246;6.850;2023-07-31T00:02:34;23.20;47.50
6986;DHT22;3533;51.246;6.850;2023-07-31T00:05:01;23.20;47.50
6986;DHT22;3533;51.246;6.850;2023-07-31T00:07:26;23.20;47.50
6986;DHT22;3533;51.246;6.850;2023-07-31T00:09:52;23.20;47.50
6986;DHT22;3533;51.246;6.850;2023-07-31T00:12:19;23.20;47.50
6986;DHT22;3533;51.246;6.850;2023-07-31T00:14:44;23.20;47.50
6986;DHT22;3533;51.246;6.850;2023-07-31T00:17:10;23.20;47.50
6986;DHT22;3533;51.246;6.850;2023-07-31T00:19:35;23.20;47.50
6986;DHT22;3533;51.246;6.850;2023-07-31T00:22:01;23.20;47.50
6986;DHT22;3533;51.246;6.850;2023-07-31T00:24:26;23.20;47.50
6986;DHT22;3533;51.246;6.850;2023-07-31T00:26:52;23.20;47.50
6986;DHT22;3533;51.246;6.850;2023-07-31T00:29:17;23.20;47.50
6986;DHT22;3533;51.246;6.850;2023-07-31T00:31:43;23.20;47.50
6986;DHT22;3533;51.246;6.850;2023-07-31T00:34:08;23.20;47.50
6986;DHT22;3533;51.246;6.850;2023-07-31T00:36:34;23.20;47.50
6986;DHT22;3533;51.246;6.850;2023-07-31T00:38:59;23.20;47.50
6986;DHT22;3533;51.246;6.850;2023-07-31T00:41:25;23.20;47.50
6986;DHT22;3533;51.246;6.850;2023-07-31T00:43:50;23.20;47.60
6986;DHT22;3533;51.246;6.850;2023-07-31T00:46:16;23.10;48.20
6986;DHT22;3533;51.246;6.850;2023-07-31T00:48:42;23.20;47.50
6986;DHT22;3533;51.246;6.850;2023-07-31T00:51:08;23.20;47.50
6986;DHT22;3533;51.246;6.850;2023-07-31T00:53:34;23.20;47.50
6986;DHT22;3533;51.246;6.850;2023-07-31T00:56:00;23.20;47.50
6986;DHT22;3533;51.246;6.850;2023-07-31T00:58:26;23.20;47.50
6986;DHT22;3533;51.246;6.850;2023-07-31T01:00:51;23.20;47.50
6986;DHT22;3533;51.246;6.850;2023-07-31T01:03:17;23.20;47.50
6986;DHT22;3533;51.246;6.850;2023-07-31T01:05:50;23.10;47.40
6986;DHT22;3533;51.246;6.850;2023-07-31T01:08:28;23.10;47.40
6986;DHT22;3533;51.246;6.850;2023-07-31T01:11:00;23.10;47.50
6986;DHT22;3533;51.246;6.850;2023-07-31T01:13:28;23.10;47.40
6986;DHT22;3533;51.246;6.850;2023-07-31T01:15:54;23.10;47.40
6986;DHT22;3533;51.246;6.850;2023-07-31T01:18:19;23.20;47.50
6986;DHT22;3533;51.246;6.850;2023-07-31T01:20:48;23.10;47.40
6986;DHT22;3533;51.246;6.850;2023-07-31T01:23:58;23.10;47.40
6986;DHT22;3533;51.246;6.850;2023-07-31T01:26:36;23.10;47.40
6986;DHT22;3533;51.246;6.850;2023-07-31T01:29:07;23.10;47.40
6986;DHT22;3533;51.246;6.850;2023-07-31T01:31:37;23.10;47.40
6986;DHT22;3533;51.246;6.850;2023-07-31T01:34:03;23.10;47.40
6986;DHT22;3533;51.246;6.850;2023-07-31T01:36:30;23.10;47.40
6986;DHT22;3533;51.246;6.850;2023-07-31T01:39:01;23.10;47.40
6986;DHT22;3533;51.246;6.850;2023-07-31T01:41:27;23.10;47.30
6986;DHT22;3533;51.246;6.850;2023-07-31T01:43:52;23.20;47.50
6986;DHT22;3533;51.246;6.850;2023-07-31T01:46:18;23.10;47.40
6986;DHT22;3533;51.246;6.850;2023-07-31T01:48:43;23.10;46.70
6986;DHT22;3533;51.246;6.850;2023-07-31T01:51:09;23.10;47.40
6986;DHT22;3533;51.246;6.850;2023-07-31T01:53:34;23.10;47.40
6986;DHT22;3533;51.246;6.850;2023-07-31T01:56:00;23.10;47.40
6986;DHT22;3533;51.246;6.850;2023-07-31T01:58:26;23.10;47.40
6986;DHT22;3533;51.246;6.850;2023-07-31T02:00:51;23.10;47.40
6986;DHT22;3533;51.246;6.850;2023-07-31T02:03:17;23.10;47.40
6986;DHT22;3533;51.246;6.850;2023-07-31T02:05:49;23.10;47.40
6986;DHT22;3533;51.246;6.850;2023-07-31T02:08:15;23.10;47.30
6986;DHT22;3533;51.246;6.850;2023-07-31T02:10:41;23.10;47.40
6986;DHT22;3533;51.246;6.850;2023-07-31T02:13:07;23.10;47.40
6986;DHT22;3533;51.246;6.850;2023-07-31T02:15:34;23.10;47.40
6986;DHT22;3533;51.246;6.850;2023-07-31T02:17:59;23.10;47.40
6986;DHT22;3533;51.246;6.850;2023-07-31T02:20:25;23.10;47.40
6986;DHT22;3533;51.246;6.850;2023-07-31T02:22:51;23.10;47.40
6986;DHT22;3533;51.246;6.850;2023-07-31T02:25:16;23.10;47.40
6986;DHT22;3533;51.246;6.850;2023-07-31T02:27:42;23.10;47.40
6986;DHT22;3533;51.246;6.850;2023-07-31T02:30:08;23.10;47.40
6986;DHT22;3533;51.246;6.850;2023-07-31T02:32:33;23.10;47.30
6986;DHT22;3533;51.246;6.850;2023-07-31T02:34:59;23.10;47.40
6986;DHT22;3533;51.246;6.850;2023-07-31T02:37:25;23.10;47.40
6986;DHT22;3533;51.246;6.850;2023-07-31T02:39:50;23.10;47.40
6986;DHT22;3533;51.246;6.850;2023-07-31T02:42:16;23.10;47.40
6986;DHT22;3533;51.246;6.850;2023-07-31T02:44:42;23.10;47.50
6986;DHT22;3533;51.246;6.850;2023-07-31T02:47:07;23.10;47.40
6986;DHT22;3533;51.246;6.850;2023-07-31T02:49:33;23.10;47.40
6986;DHT22;3533;51.246;6.850;2023-07-31T02:51:58;23.10;47.40
6986;DHT22;3533;51.246;6.850;2023-07-31T02:54:24;23.10;47.40
6986;DHT22;3533;51.246;6.850;2023-07-31T02:56:49;23.10;47.40
6986;DHT22;3533;51.246;6.850;2023-07-31T02:59:15;23.10;47.40
6986;DHT22;3533;51.246;6.850;2023-07-31T03:01:40;23.10;47.40
6986;DHT22;3533;51.246;6.850;2023-07-31T03:04:07;23.10;47.40
6986;DHT22;3533;51.246;6.850;2023-07-31T03:06:32;23.10;47.40
6986;DHT22;3533;51.246;6.850;2023-07-31T03:08:58;23.10;47.40
6986;DHT22;3533;51.246;6.850;2023-07-31T03:11:23;23.10;47.40
6986;DHT22;3533;51.246;6.850;2023-07-31T03:13:49;23.10;47.40
6986;DHT22;3533;51.246;6.850;2023-07-31T03:16:14;23.10;47.40
6986;DHT22;3533;51.246;6.850;2023-07-31T03:18:40;23.10;47.40
6986;DHT22;3533;51.246;6.850;2023-07-31T03:21:05;23.10;47.40
6986;DHT22;3533;51.246;6.850;2023-07-31T03:23:31;23.10;47.40
6986;DHT22;3533;51.246;6.850;2023-07-31T03:25:58;23.10;47.40
6986;DHT22;3533;51.246;6.850;2023-07-31T03:28:24;23.10;47.40
6986;DHT22;3533;51.246;6.850;2023-07-31T03:30:50;23.10;47.40
6986;DHT22;3533;51.246;6.850;2023-07-31T03:33:16;23.10;47.40
6986;DHT22;3533;51.246;6.850;2023-07-31T03:35:41;23.10;47.40
6986;DHT22;3533;51.246;6.850;2023-07-31T03:38:07;23.10;47.50
6986;DHT22;3533;51.246;6.850;2023-07-31T03:40:32;23.10;47.40
6986;DHT22;3533;51.246;6.850;2023-07-31T03:42:58;23.10;47.40
6986;DHT22;3533;51.246;6.850;2023-07-31T03:45:23;23.10;47.40
6986;DHT22;3533;51.246;6.850;2023-07-31T03:47:49;23.10;47.40
6986;DHT22;3533;51.246;6.850;2023-07-31T03:50:14;23.10;47.30
6986;DHT22;3533;51.246;6.850;2023-07-31T03:52:41;23.10;47.40
6986;DHT22;3533;51.246;6.850;2023-07-31T03:55:07;23.10;47.40
6986;DHT22;3533;51.246;6.850;2023-07-31T03:57:32;23.10;47.50
6986;DHT22;3533;51.246;6.850;2023-07-31T03:59:58;23.10;47.40
6986;DHT22;3533;51.246;6.850;2023-07-31T04:02:24;23.10;47.40
6986;DHT22;3533;51.246;6.850;2023-07-31T04:04:49;23.10;47.40
6986;DHT22;3533;51.246;6.850;2023-07-31T04:07:15;23.10;47.40
6986;DHT22;3533;51.246;6.850;2023-07-31T04:09:40;23.10;47.40
6986;DHT22;3533;51.246;6.850;2023-07-31T04:12:06;23.10;47.30
6986;DHT22;3533;51.246;6.850;2023-07-31T04:14:32;23.10;47.40
6986;DHT22;3533;51.246;6.850;2023-07-31T04:16:57;23.10;47.40
6986;DHT22;3533;51.246;6.850;2023-07-31T04:19:23;23.10;47.40
6986;DHT22;3533;51.246;6.850;2023-07-31T04:21:48;23.10;47.40
6986;DHT22;3533;51.246;6.850;2023-07-31T04:24:14;23.10;47.40
6986;DHT22;3533;51.246;6.850;2023-07-31T04:26:40;23.10;47.40
6986;DHT22;3533;51.246;6.850;2023-07-31T04:29:05;23.10;47.40
6986;DHT22;3533;51.246;6.850;2023-07-31T04:31:30;23.10;47.40
6986;DHT22;3533;51.246;6.850;2023-07-31T04:33:56;23.10;47.40
6986;DHT22;3533;51.246;6.850;2023-07-31T04:36:21;23.10;47.40
6986;DHT22;3533;51.246;6.850;2023-07-31T04:38:47;23.10;47.40
6986;DHT22;3533;51.246;6.850;2023-07-31T04:41:12;23.10;47.40
6986;DHT22;3533;51.246;6.850;2023-07-31T04:43:38;23.10;47.40
6986;DHT22;3533;51.246;6.850;2023-07-31T04:46:05;23.10;47.40
6986;DHT22;3533;51.246;6.850;2023-07-31T04:48:31;23.10;47.40
6986;DHT22;3533;51.246;6.850;2023-07-31T04:50:56;23.10;47.40
6986;DHT22;3533;51.246;6.850;2023-07-31T04:53:22;23.10;47.40
6986;DHT22;3533;51.246;6.850;2023-07-31T04:55:47;23.10;47.40
6986;DHT22;3533;51.246;6.850;2023-07-31T04:58:13;23.10;47.40
6986;DHT22;3533;51.246;6.850;2023-07-31T05:00:38;23.10;47.40
6986;DHT22;3533;51.246;6.850;2023-07-31T05:03:04;23.10;47.40
6986;DHT22;3533;51.246;6.850;2023-07-31T05:05:30;23.10;47.40
6986;DHT22;3533;51.246;6.850;2023-07-31T05:07:55;23.10;47.40
6986;DHT22;3533;51.246;6.850;2023-07-31T05:10:21;23.20;47.50
6986;DHT22;3533;51.246;6.850;2023-07-31T05:12:46;23.20;47.50
6986;DHT22;3533;51.246;6.850;2023-07-31T05:15:12;23.10;47.40
6986;DHT22;3533;51.246;6.850;2023-07-31T05:17:37;23.20;47.50
6986;DHT22;3533;51.246;6.850;2023-07-31T05:20:03;23.10;47.40
6986;DHT22;3533;51.246;6.850;2023-07-31T05:22:29;23.20;47.50
6986;DHT22;3533;51.246;6.850;2023-07-31T05:24:54;23.10;47.40
6986;DHT22;3533;51.246;6.850;2023-07-31T05:27:20;23.20;47.50
6986;DHT22;3533;51.246;6.850;2023-07-31T05:29:45;23.20;47.50
6986;DHT22;3533;51.246;6.850;2023-07-31T05:32:11;23.20;47.50
6986;DHT22;3533;51.246;6.850;2023-07-31T05:34:37;23.20;47.60
6986;DHT22;3533;51.246;6.850;2023-07-31T05:37:02;23.20;47.50
6986;DHT22;3533;51.246;6.850;2023-07-31T05:39:28;23.20;47.50
6986;DHT22;3533;51.246;6.850;2023-07-31T05:41:54;23.20;47.50
6986;DHT22;3533;51.246;6.850;2023-07-31T05:44:19;23.20;47.50
6986;DHT22;3533;51.246;6.850;2023-07-31T05:46:44;23.20;47.50
6986;DHT22;3533;51.246;6.850;2023-07-31T05:49:10;23.20;47.50
6986;DHT22;3533;51.246;6.850;2023-07-31T05:51:35;23.20;47.50
6986;DHT22;3533;51.246;6.850;2023-07-31T05:54:01;23.20;47.50
6986;DHT22;3533;51.246;6.850;2023-07-31T05:56:26;23.20;47.50
6986;DHT22;3533;51.246;6.850;2023-07-31T05:58:52;23.20;47.50
6986;DHT22;3533;51.246;6.850;2023-07-31T06:01:18;23.20;47.50
6986;DHT22;3533;51.246;6.850;2023-07-31T06:03:43;23.20;47.50
6986;DHT22;3533;51.246;6.850;2023-07-31T06:06:09;23.20;47.50
6986;DHT22;3533;51.246;6.850;2023-07-31T06:08:35;23.20;47.50
6986;DHT22;3533;51.246;6.850;2023-07-31T06:11:00;23.20;47.50
6986;DHT22;3533;51.246;6.850;2023-07-31T06:13:26;23.20;47.50
6986;DHT22;3533;51.246;6.850;2023-07-31T06:15:51;23.10;47.40
6986;DHT22;3533;51.246;6.850;2023-07-31T06:18:17;23.20;47.60
6986;DHT22;3533;51.246;6.850;2023-07-31T06:20:42;23.20;47.50
6986;DHT22;3533;51.246;6.850;2023-07-31T06:23:08;23.20;47.50
6986;DHT22;3533;51.246;6.850;2023-07-31T06:25:33;23.10;47.40
6986;DHT22;3533;51.246;6.850;2023-07-31T06:27:59;23.20;47.50
6986;DHT22;3533;51.246;6.850;2023-07-31T06:30:24;23.20;47.50
6986;DHT22;3533;51.246;6.850;2023-07-31T06:32:50;23.20;47.50
6986;DHT22;3533;51.246;6.850;2023-07-31T06:35:15;23.20;47.50
6986;DHT22;3533;51.246;6.850;2023-07-31T06:37:41;23.10;47.40
6986;DHT22;3533;51.246;6.850;2023-07-31T06:40:09;23.20;47.50
6986;DHT22;3533;51.246;6.850;2023-07-31T06:42:35;23.10;47.40
6986;DHT22;3533;51.246;6.850;2023-07-31T06:45:02;23.10;47.40
6986;DHT22;3533;51.246;6.850;2023-07-31T06:47:27;23.20;47.50
6986;DHT22;3533;51.246;6.850;2023-07-31T06:49:53;23.10;47.40
6986;DHT22;3533;51.246;6.850;2023-07-31T06:52:18;23.10;47.40
6986;DHT22;3533;51.246;6.850;2023-07-31T06:54:44;23.10;47.40
6986;DHT22;3533;51.246;6.850;2023-07-31T06:57:10;23.10;47.40
6986;DHT22;3533;51.246;6.850;2023-07-31T06:59:35;23.10;47.40
6986;DHT22;3533;51.246;6.850;2023-07-31T07:02:01;23.10;47.40
6986;DHT22;3533;51.246;6.850;2023-07-31T07:04:26;23.10;47.40
6986;DHT22;3533;51.246;6.850;2023-07-31T07:06:52;23.10;47.40
6986;DHT22;3533;51.246;6.850;2023-07-31T07:09:17;23.10;47.40
6986;DHT22;3533;51.246;6.850;2023-07-31T07:11:43;23.10;47.40
6986;DHT22;3533;51.246;6.850;2023-07-31T07:14:08;23.10;47.40
6986;DHT22;3533;51.246;6.850;2023-07-31T07:16:34;23.10;47.40
6986;DHT22;3533;51.246;6.850;2023-07-31T07:18:59;23.20;47.50
6986;DHT22;3533;51.246;6.850;2023-07-31T07:21:25;23.10;47.40
6986;DHT22;3533;51.246;6.850;2023-07-31T07:23:50;23.10;47.40
6986;DHT22;3533;51.246;6.850;2023-07-31T07:26:16;23.10;47.40
6986;DHT22;3533;51.246;6.850;2023-07-31T07:28:41;23.10;47.40
6986;DHT22;3533;51.246;6.850;2023-07-31T07:31:07;23.10;47.40
6986;DHT22;3533;51.246;6.850;2023-07-31T07:33:32;23.10;47.40
6986;DHT22;3533;51.246;6.850;2023-07-31T07:36:01;23.10;47.40
6986;DHT22;3533;51.246;6.850;2023-07-31T07:38:27;23.10;47.40
6986;DHT22;3533;51.246;6.850;2023-07-31T07:40:53;23.10;47.40
6986;DHT22;3533;51.246;6.850;2023-07-31T07:43:19;23.10;47.40
6986;DHT22;3533;51.246;6.850;2023-07-31T07:45:44;23.10;47.40
6986;DHT22;3533;51.246;6.850;2023-07-31T07:48:10;23.10;47.40
6986;DHT22;3533;51.246;6.850;2023-07-31T07:50:35;23.10;47.40
6986;DHT22;3533;51.246;6.850;2023-07-31T07:53:02;23.10;47.40
6986;DHT22;3533;51.246;6.850;2023-07-31T07:55:27;23.10;47.40
6986;DHT22;3533;51.246;6.850;2023-07-31T07:57:53;23.10;47.40
6986;DHT22;3533;51.246;6.850;2023-07-31T08:00:18;23.10;47.40
6986;DHT22;3533;51.246;6.850;2023-07-31T08:02:44;23.10;47.40
6986;DHT22;3533;51.246;6.850;2023-07-31T08:05:09;23.10;47.40
6986;DHT22;3533;51.246;6.850;2023-07-31T08:07:35;23.10;47.40
6986;DHT22;3533;51.246;6.850;2023-07-31T08:10:01;23.20;47.20
6986;DHT22;3533;51.246;6.850;2023-07-31T08:12:26;23.20;47.20
6986;DHT22;3533;51.246;6.850;2023-07-31T08:14:52;23.20;47.10
6986;DHT22;3533;51.246;6.850;2023-07-31T08:17:17;23.20;46.90
6986;DHT22;3533;51.246;6.850;2023-07-31T08:19:43;23.20;46.90
6986;DHT22;3533;51.246;6.850;2023-07-31T08:22:09;23.20;46.80
6986;DHT22;3533;51.246;6.850;2023-07-31T08:24:35;23.20;46.70
6986;DHT22;3533;51.246;6.850;2023-07-31T08:27:00;23.20;46.80
6986;DHT22;3533;51.246;6.850;2023-07-31T08:29:26;23.20;46.70
6986;DHT22;3533;51.246;6.850;2023-07-31T08:31:51;23.20;46.70
6986;DHT22;3533;51.246;6.850;2023-07-31T08:34:17;23.20;46.60
6986;DHT22;3533;51.246;6.850;2023-07-31T08:36:42;23.20;46.60
6986;DHT22;3533;51.246;6.850;2023-07-31T08:39:08;23.20;46.70
6986;DHT22;3533;51.246;6.850;2023-07-31T08:41:38;23.20;46.80
6986;DHT22;3533;51.246;6.850;2023-07-31T08:44:05;23.20;46.80
6986;DHT22;3533;51.246;6.850;2023-07-31T08:46:31;23.20;46.90
6986;DHT22;3533;51.246;6.850;2023-07-31T08:48:58;23.20;46.90
6986;DHT22;3533;51.246;6.850;2023-07-31T08:51:24;23.20;46.80
6986;DHT22;3533;51.246;6.850;2023-07-31T08:53:50;23.20;46.80
6986;DHT22;3533;51.246;6.850;2023-07-31T08:56:16;23.20;46.90
6986;DHT22;3533;51.246;6.850;2023-07-31T08:58:43;23.20;46.80
6986;DHT22;3533;51.246;6.850;2023-07-31T09:01:09;23.20;46.80
6986;DHT22;3533;51.246;6.850;2023-07-31T09:03:36;23.20;46.80
6986;DHT22;3533;51.246;6.850;2023-07-31T09:06:02;23.20;46.70
6986;DHT22;3533;51.246;6.850;2023-07-31T09:08:30;23.20;46.80
6986;DHT22;3533;51.246;6.850;2023-07-31T09:11:00;23.20;46.80
6986;DHT22;3533;51.246;6.850;2023-07-31T09:13:28;23.20;46.80
6986;DHT22;3533;51.246;6.850;2023-07-31T09:15:54;23.20;46.70
6986;DHT22;3533;51.246;6.850;2023-07-31T09:18:20;23.20;46.80
6986;DHT22;3533;51.246;6.850;2023-07-31T09:21:00;23.20;46.80
6986;DHT22;3533;51.246;6.850;2023-07-31T09:23:43;23.20;46.70
6986;DHT22;3533;51.246;6.850;2023-07-31T09:26:09;23.20;46.80
6986;DHT22;3533;51.246;6.850;2023-07-31T09:28:34;23.20;47.70
6986;DHT22;3533;51.246;6.850;2023-07-31T09:31:00;23.20;46.90
6986;DHT22;3533;51.246;6.850;2023-07-31T09:33:25;23.20;46.80
6986;DHT22;3533;51.246;6.850;2023-07-31T09:35:51;23.20;46.90
6986;DHT22;3533;51.246;6.850;2023-07-31T09:38:17;23.20;46.90
6986;DHT22;3533;51.246;6.850;2023-07-31T09:40:45;23.20;46.80
6986;DHT22;3533;51.246;6.850;2023-07-31T09:43:19;23.20;46.70
6986;DHT22;3533;51.246;6.850;2023-07-31T09:45:45;23.20;46.80
6986;DHT22;3533;51.246;6.850;2023-07-31T09:48:15;23.20;46.90
6986;DHT22;3533;51.246;6.850;2023-07-31T09:50:43;23.20;46.80
6986;DHT22;3533;51.246;6.850;2023-07-31T09:53:09;23.20;46.80
6986;DHT22;3533;51.246;6.850;2023-07-31T09:55:36;23.20;46.80
6986;DHT22;3533;51.246;6.850;2023-07-31T09:58:07;23.20;46.80
6986;DHT22;3533;51.246;6.850;2023-07-31T10:00:34;23.20;46.80
6986;DHT22;3533;51.246;6.850;2023-07-31T10:03:04;23.20;46.80
6986;DHT22;3533;51.246;6.850;2023-07-31T10:05:50;23.20;46.90
6986;DHT22;3533;51.246;6.850;2023-07-31T10:08:18;23.20;46.80
6986;DHT22;3533;51.246;6.850;2023-07-31T10:10:45;23.20;46.80
6986;DHT22;3533;51.246;6.850;2023-07-31T10:13:13;23.20;46.80
6986;DHT22;3533;51.246;6.850;2023-07-31T10:15:39;23.20;46.80
6986;DHT22;3533;51.246;6.850;2023-07-31T10:18:07;23.20;46.90
6986;DHT22;3533;51.246;6.850;2023-07-31T10:20:33;23.20;47.00
6986;DHT22;3533;51.246;6.850;2023-07-31T10:22:59;23.20;47.00
6986;DHT22;3533;51.246;6.850;2023-07-31T10:25:26;23.20;47.90
6986;DHT22;3533;51.246;6.850;2023-07-31T10:27:53;23.20;47.10
6986;DHT22;3533;51.246;6.850;2023-07-31T10:30:21;23.20;47.10
6986;DHT22;3533;51.246;6.850;2023-07-31T10:32:48;23.20;47.00
6986;DHT22;3533;51.246;6.850;2023-07-31T10:35:16;23.20;47.80
6986;DHT22;3533;51.246;6.850;2023-07-31T10:37:42;23.20;46.90
6986;DHT22;3533;51.246;6.850;2023-07-31T10:40:25;23.20;46.90
6986;DHT22;3533;51.246;6.850;2023-07-31T10:42:56;23.20;47.00
6986;DHT22;3533;51.246;6.850;2023-07-31T10:48:01;23.20;47.20
6986;DHT22;3533;51.246;6.850;2023-07-31T10:50:28;23.10;47.40
6986;DHT22;3533;51.246;6.850;2023-07-31T10:52:55;23.10;47.40
6986;DHT22;3533;51.246;6.850;2023-07-31T10:55:39;23.10;47.40
6986;DHT22;3533;51.246;6.850;2023-07-31T10:58:10;23.10;47.40
6986;DHT22;3533;51.246;6.850;2023-07-31T11:00:40;23.10;47.40
6986;DHT22;3533;51.246;6.850;2023-07-31T11:03:12;23.10;47.40
6986;DHT22;3533;51.246;6.850;2023-07-31T11:08:31;23.10;47.40
6986;DHT22;3533;51.246;6.850;2023-07-31T11:16:05;23.10;47.40
6986;DHT22;3533;51.246;6.850;2023-07-31T11:18:31;23.10;47.40
6986;DHT22;3533;51.246;6.850;2023-07-31T11:20:56;23.10;47.40
6986;DHT22;3533;51.246;6.850;2023-07-31T11:23:23;23.10;47.40
6986;DHT22;3533;51.246;6.850;2023-07-31T11:25:49;23.10;47.40
6986;DHT22;3533;51.246;6.850;2023-07-31T11:28:16;23.10;47.40
6986;DHT22;3533;51.246;6.850;2023-07-31T11:30:43;23.10;47.40
6986;DHT22;3533;51.246;6.850;2023-07-31T11:33:11;23.10;47.40
6986;DHT22;3533;51.246;6.850;2023-07-31T11:35:42;23.10;47.40
6986;DHT22;3533;51.246;6.850;2023-07-31T11:38:10;23.10;47.40
6986;DHT22;3533;51.246;6.850;2023-07-31T11:40:43;23.10;47.40
6986;DHT22;3533;51.246;6.850;2023-07-31T11:43:08;23.10;47.40
6986;DHT22;3533;51.246;6.850;2023-07-31T11:45:35;23.20;47.50
6986;DHT22;3533;51.246;6.850;2023-07-31T11:48:01;23.10;47.40
6986;DHT22;3533;51.246;6.850;2023-07-31T11:50:27;23.10;48.10
6986;DHT22;3533;51.246;6.850;2023-07-31T11:53:06;23.10;47.40
6986;DHT22;3533;51.246;6.850;2023-07-31T11:55:33;23.10;47.40
6986;DHT22;3533;51.246;6.850;2023-07-31T11:57:59;23.10;47.40
6986;DHT22;3533;51.246;6.850;2023-07-31T12:00:25;23.10;47.40
6986;DHT22;3533;51.246;6.850;2023-07-31T12:02:51;23.10;47.40
6986;DHT22;3533;51.246;6.850;2023-07-31T12:05:17;23.10;47.40
6986;DHT22;3533;51.246;6.850;2023-07-31T12:07:50;23.10;47.30
6986;DHT22;3533;51.246;6.850;2023-07-31T12:10:27;23.10;48.10
6986;DHT22;3533;51.246;6.850;2023-07-31T12:15:29;23.10;47.40
6986;DHT22;3533;51.246;6.850;2023-07-31T12:17:56;23.20;47.50
6986;DHT22;3533;51.246;6.850;2023-07-31T12:20:22;23.10;47.40
6986;DHT22;3533;51.246;6.850;2023-07-31T12:22:47;23.10;47.30
6986;DHT22;3533;51.246;6.850;2023-07-31T12:25:15;23.10;47.40
6986;DHT22;3533;51.246;6.850;2023-07-31T12:27:44;23.10;47.40
6986;DHT22;3533;51.246;6.850;2023-07-31T12:30:31;23.10;47.40
6986;DHT22;3533;51.246;6.850;2023-07-31T12:32:57;23.10;47.40
6986;DHT22;3533;51.246;6.850;2023-07-31T12:35:23;23.10;47.40
6986;DHT22;3533;51.246;6.850;2023-07-31T12:37:48;23.10;47.40
6986;DHT22;3533;51.246;6.850;2023-07-31T12:40:14;23.10;47.40
6986;DHT22;3533;51.246;6.850;2023-07-31T12:42:41;23.10;47.40
6986;DHT22;3533;51.246;6.850;2023-07-31T12:45:06;23.10;47.40
6986;DHT22;3533;51.246;6.850;2023-07-31T12:47:32;23.10;47.40
6986;DHT22;3533;51.246;6.850;2023-07-31T12:49:58;23.10;47.40
6986;DHT22;3533;51.246;6.850;2023-07-31T12:52:23;23.10;47.40
6986;DHT22;3533;51.246;6.850;2023-07-31T12:54:49;23.10;47.40
6986;DHT22;3533;51.246;6.850;2023-07-31T12:57:14;23.10;47.40
6986;DHT22;3533;51.246;6.850;2023-07-31T12:59:40;23.10;47.40
6986;DHT22;3533;51.246;6.850;2023-07-31T13:02:05;23.10;47.40
6986;DHT22;3533;51.246;6.850;2023-07-31T13:04:31;23.10;47.40
6986;DHT22;3533;51.246;6.850;2023-07-31T13:06:56;23.10;47.80
6986;DHT22;3533;51.246;6.850;2023-07-31T13:09:22;23.10;47.40
6986;DHT22;3533;51.246;6.850;2023-07-31T13:11:47;23.10;47.40
6986;DHT22;3533;51.246;6.850;2023-07-31T13:14:13;23.10;47.50
6986;DHT22;3533;51.246;6.850;2023-07-31T13:16:38;23.10;47.40
6986;DHT22;3533;51.246;6.850;2023-07-31T13:19:04;23.10;47.40
6986;DHT22;3533;51.246;6.850;2023-07-31T13:21:29;23.10;47.40
6986;DHT22;3533;51.246;6.850;2023-07-31T13:23:55;23.10;47.40
6986;DHT22;3533;51.246;6.850;2023-07-31T13:26:23;23.10;47.50
6986;DHT22;3533;51.246;6.850;2023-07-31T13:28:48;23.10;47.40
6986;DHT22;3533;51.246;6.850;2023-07-31T13:31:14;23.10;47.40
6986;DHT22;3533;51.246;6.850;2023-07-31T13:33:39;23.10;47.40
6986;DHT22;3533;51.246;6.850;2023-07-31T13:36:05;23.10;47.40
6986;DHT22;3533;51.246;6.850;2023-07-31T13:38:30;23.10;47.50
6986;DHT22;3533;51.246;6.850;2023-07-31T13:40:56;23.10;47.70
6986;DHT22;3533;51.246;6.850;2023-07-31T13:43:21;23.10;47.70
6986;DHT22;3533;51.246;6.850;2023-07-31T13:45:47;23.10;47.80
6986;DHT22;3533;51.246;6.850;2023-07-31T13:48:13;23.10;47.80
6986;DHT22;3533;51.246;6.850;2023-07-31T13:50:38;23.10;47.80
6986;DHT22;3533;51.246;6.850;2023-07-31T13:53:04;23.10;47.90
6986;DHT22;3533;51.246;6.850;2023-07-31T13:55:29;23.10;47.90
6986;DHT22;3533;51.246;6.850;2023-07-31T13:57:55;23.10;47.90
6986;DHT22;3533;51.246;6.850;2023-07-31T14:00:21;23.10;47.90
6986;DHT22;3533;51.246;6.850;2023-07-31T14:02:46;23.10;47.90
6986;DHT22;3533;51.246;6.850;2023-07-31T14:05:12;23.10;48.00
6986;DHT22;3533;51.246;6.850;2023-07-31T14:07:37;23.10;48.00
6986;DHT22;3533;51.246;6.850;2023-07-31T14:10:03;23.10;48.00
6986;DHT22;3533;51.246;6.850;2023-07-31T14:12:29;23.10;48.00
6986;DHT22;3533;51.246;6.850;2023-07-31T14:14:56;23.10;48.00
6986;DHT22;3533;51.246;6.850;2023-07-31T14:17:21;23.10;48.00
6986;DHT22;3533;51.246;6.850;2023-07-31T14:19:47;23.10;48.10
6986;DHT22;3533;51.246;6.850;2023-07-31T14:22:12;23.10;48.00
6986;DHT22;3533;51.246;6.850;2023-07-31T14:24:38;23.10;48.00
6986;DHT22;3533;51.246;6.850;2023-07-31T14:27:04;23.10;48.10
6986;DHT22;3533;51.246;6.850;2023-07-31T14:29:30;23.10;48.10
6986;DHT22;3533;51.246;6.850;2023-07-31T14:31:55;23.10;48.10
6986;DHT22;3533;51.246;6.850;2023-07-31T14:34:21;23.10;48.00
6986;DHT22;3533;51.246;6.850;2023-07-31T14:36:46;23.10;48.10
6986;DHT22;3533;51.246;6.850;2023-07-31T14:39:12;23.10;48.00
6986;DHT22;3533;51.246;6.850;2023-07-31T14:41:37;23.10;48.00
6986;DHT22;3533;51.246;6.850;2023-07-31T14:44:03;23.10;48.00
6986;DHT22;3533;51.246;6.850;2023-07-31T14:46:29;23.00;48.10
6986;DHT22;3533;51.246;6.850;2023-07-31T14:48:55;23.10;48.00
6986;DHT22;3533;51.246;6.850;2023-07-31T14:51:20;23.10;48.10
6986;DHT22;3533;51.246;6.850;2023-07-31T14:53:46;23.00;48.00
6986;DHT22;3533;51.246;6.850;2023-07-31T14:56:12;23.10;48.00
6986;DHT22;3533;51.246;6.850;2023-07-31T14:58:38;23.00;48.00
6986;DHT22;3533;51.246;6.850;2023-07-31T15:01:03;23.00;48.70
6986;DHT22;3533;51.246;6.850;2023-07-31T15:03:29;23.00;48.10
6986;DHT22;3533;51.246;6.850;2023-07-31T15:05:54;23.10;48.10
6986;DHT22;3533;51.246;6.850;2023-07-31T15:08:20;23.00;48.00
6986;DHT22;3533;51.246;6.850;2023-07-31T15:10:46;23.00;48.00
6986;DHT22;3533;51.246;6.850;2023-07-31T15:13:11;23.00;48.10
6986;DHT22;3533;51.246;6.850;2023-07-31T15:15:37;23.00;48.00
6986;DHT22;3533;51.246;6.850;2023-07-31T15:18:02;23.00;48.00
6986;DHT22;3533;51.246;6.850;2023-07-31T15:20:28;23.00;48.00
6986;DHT22;3533;51.246;6.850;2023-07-31T15:22:54;23.00;48.00
6986;DHT22;3533;51.246;6.850;2023-07-31T15:25:20;23.00;48.00
6986;DHT22;3533;51.246;6.850;2023-07-31T15:27:46;23.00;47.90
6986;DHT22;3533;51.246;6.850;2023-07-31T15:30:12;23.00;47.90
6986;DHT22;3533;51.246;6.850;2023-07-31T15:32:38;23.00;47.90
6986;DHT22;3533;51.246;6.850;2023-07-31T15:35:05;23.00;47.90
6986;DHT22;3533;51.246;6.850;2023-07-31T15:37:31;23.00;47.90
6986;DHT22;3533;51.246;6.850;2023-07-31T15:39:56;23.00;47.80
6986;DHT22;3533;51.246;6.850;2023-07-31T15:42:22;23.00;47.80
6986;DHT22;3533;51.246;6.850;2023-07-31T15:44:47;23.00;47.80
6986;DHT22;3533;51.246;6.850;2023-07-31T15:47:13;23.00;47.80
6986;DHT22;3533;51.246;6.850;2023-07-31T15:49:38;23.00;47.80
6986;DHT22;3533;51.246;6.850;2023-07-31T15:52:04;23.00;47.70
6986;DHT22;3533;51.246;6.850;2023-07-31T15:54:30;23.00;47.70
6986;DHT22;3533;51.246;6.850;2023-07-31T15:56:56;23.00;47.70
6986;DHT22;3533;51.246;6.850;2023-07-31T15:59:21;23.10;47.80
6986;DHT22;3533;51.246;6.850;2023-07-31T16:01:47;23.10;48.20
6986;DHT22;3533;51.246;6.850;2023-07-31T16:04:12;23.10;47.80
6986;DHT22;3533;51.246;6.850;2023-07-31T16:06:38;23.10;47.80
6986;DHT22;3533;51.246;6.850;2023-07-31T16:09:03;23.00;47.70